Nearby METAR Reports

 

KAUS - Austin, Texas, USA
Distance from station: WNW 16mi, 26km
Updated: Sun, 04-Dec-2022 8:53am CST
Overcast
Overcast
 Wind from N
Wind: N 10 mph , 17 km/h
Temperature: 54°F , 12°C
Dew Point: 45°F , 7°C
Humidity: 72%
Barometer: 30.31 inHg , 1026.4 hPa
Clouds: Overcast
Visibility: 10 miles , 16 km
Cloud details: Overcast 1600 ft
2022/12/04 14:53 KAUS 041453Z 36009KT 10SM OVC016 12/07 A3031 RMK AO2 SLP264 T01170067 51007
KEDC - Austin Exec, Texas, USA
Distance from station: NNW 21mi, 34km
Updated: Sun, 04-Dec-2022 9:15am CST
Overcast
Overcast
 Wind from NE
Wind: NE 9 mph , 15 km/h
Temperature: 54°F , 12°C
Dew Point: 45°F , 7°C
Humidity: 72%
Barometer: 30.31 inHg , 1026.4 hPa
Clouds: Overcast
Visibility: 10 miles , 16 km
Cloud details: Overcast 1700 ft
2022/12/04 15:15 KEDC 041515Z AUTO 04008KT 10SM OVC017 12/07 A3031 RMK AO2
 
KATT - Austin/Mabry, Texas, USA
Distance from station: NW 25mi, 39km
Updated: Sun, 04-Dec-2022 8:51am CST
Overcast
Overcast
 Wind from N
Wind: N 5 mph , 7 km/h
Temperature: 54°F , 12°C
Dew Point: 45°F , 7°C
Humidity: 72%
Barometer: 30.32 inHg , 1026.8 hPa
Clouds: Overcast
Visibility: 10 miles , 16 km
Cloud details: Overcast 1700 ft
2022/12/04 14:51 KATT 041451Z AUTO 01004KT 10SM OVC017 12/07 A3032 RMK AO2 SLP267 T01220067 50001
KGYB - Giddings-Lee, Texas, USA
Distance from station: E 27mi, 43km
Updated: Sun, 04-Dec-2022 9:35am CST
Overcast
Overcast
 Wind from N
Wind: N 6 mph , 9 km/h
Temperature: 54°F , 12°C
Dew Point: 46°F , 8°C
Humidity: 77%
Barometer: 30.32 inHg , 1026.8 hPa
Clouds: Overcast
Visibility: 10 miles , 16 km
Cloud details: Overcast 1200 ft
2022/12/04 15:35 KGYB 041535Z AUTO 01005KT 10SM OVC012 12/08 A3032 RMK AO2 T01200077
 
KHYI - San Marcos, Texas, USA
Distance from station: WSW 31mi, 49km
Updated: Sun, 04-Dec-2022 8:56am CST
Overcast
Overcast
 Wind from NE
Wind: NE 8 mph , 13 km/h
Temperature: 54°F , 12°C
Dew Point: 46°F , 8°C
Humidity: 77%
Barometer: 30.34 inHg , 1027.4 hPa
Clouds: Overcast
Visibility: 10 miles , 16 km
Cloud details: Overcast 1400 ft
2022/12/04 14:56 KHYI 041456Z 04007KT 10SM OVC014 12/08 A3034 RMK AO2 SLP270 T01200080 $
K3T5 - La Grange, Texas, USA
Distance from station: ESE 32mi, 52km
Updated: Sun, 04-Dec-2022 9:35am CST
Overcast
Overcast
 Wind from N
Wind: N 8 mph , 13 km/h
Temperature: 55°F , 13°C
Dew Point: 48°F , 9°C
Humidity: 77%
Barometer: 30.31 inHg , 1026.4 hPa
Clouds: Overcast
Visibility: 9 miles , 14 km
Cloud details: Overcast 1400 ft
2022/12/04 15:35 K3T5 041535Z AUTO 01007KT 9SM OVC014 13/09 A3031 RMK AO2 T01300085
 
KT20 - Gonzales Muni, Texas, USA
Distance from station: S 41mi, 67km
Updated: Sun, 04-Dec-2022 9:15am CST
Overcast
Overcast
 Wind from NNE
Wind: NNE 6 mph , 9 km/h
Temperature: 55°F , 13°C
Dew Point: 46°F , 8°C
Humidity: 72%
Barometer: 30.31 inHg , 1026.4 hPa
Clouds: Overcast
Visibility: 10 miles , 16 km
Cloud details: Overcast 1300 ft
2022/12/04 15:15 KT20 041515Z AUTO 02005KT 10SM OVC013 13/08 A3031 RMK AO2 T01310081
KRYW - Lago Vista, Texas, USA
Distance from station: NW 42mi, 67km
Updated: Sun, 04-Dec-2022 9:35am CST
Overcast
Overcast
 Wind from N
Wind: N 3 mph , 6 km/h
Temperature: 50°F , 10°C
Dew Point: 43°F , 6°C
Humidity: 76%
Barometer: 30.32 inHg , 1026.8 hPa
Clouds: Overcast
Visibility: 10 miles , 16 km
Cloud details: Overcast 1200 ft
2022/12/04 15:35 KRYW 041535Z AUTO 01003KT 10SM OVC012 10/06 A3032 RMK AO2 T00990061
 
KGTU - Georgetown, Texas, USA
Distance from station: NNW 42mi, 68km
Updated: Sun, 04-Dec-2022 8:56am CST
Overcast
Overcast
 Wind from NNW
Wind: NNW 6 mph , 9 km/h
Temperature: 52°F , 11°C
Dew Point: 43°F , 6°C
Humidity: 72%
Barometer: 30.33 inHg , 1027.1 hPa
Clouds: Overcast
Visibility: 10 miles , 16 km
Cloud details: Overcast 1800 ft
2022/12/04 14:56 KGTU 041456Z 34005KT 10SM OVC018 11/06 A3033 RMK AO2 SLP274 T01110056 56003
KBAZ - New Braunfels, Texas, USA
Distance from station: SW 46mi, 74km
Updated: Sun, 04-Dec-2022 9:20am CST
Mist, Overcast
Mist, Overcast
 Wind from NE
Wind: NE 8 mph , 13 km/h
Temperature: 54°F , 12°C
Dew Point: 50°F , 10°C
Humidity: 88%
Barometer: 30.30 inHg , 1026.1 hPa
Summary: Mist
Clouds: Overcast
Visibility: 2 miles , 3 km
Cloud details: Overcast 1000 ft
2022/12/04 15:20 KBAZ 041520Z 05007KT 2SM BR OVC010 12/10 A3030 RMK AO2 RAE1457 CIG 006V013 P0000 T01170100